首页
METAR-TAF:

METAR-TAF

机场 :

Cherry Point, 北卡罗来纳州, 美国

纬度: 34-53-52N, 经度: 076-52-51W, 海拔: 8米

当前天气观测

该预报发布于1小时和59分钟前的16:54 UTC
风速11节,风向南转南东
温度 17°C
湿度 68%
气压 1029 hPa
能見度: 16.1公里
阴天层高于6500英尺

METAR: KNKT 231654Z 16011KT 10SM OVC065 17/11 A3038 RMK A02 SLP284 T01720106

时间: 13:53 (18:53 UTC)

预报

预报有效从23日的 15点(UTC)到 24日的 15点(UTC)
风速8节,风向南转南东
能见度10公里或以上
多云层高于7000英尺
成为
从 23日的 19点(UTC)到 23日的 21点(UTC)
风速10节,风向南转南东
能见度10公里或以上
多云层高于2500英尺
多云层高于7000英尺
从 24日的 0200点(UTC)
风速12节,风向
能见度10公里或以上
多云层高于2000英尺
阴天层高于6000英尺
短暂存在
从 24日的 02点(UTC)到 24日的 08点(UTC)
风速13节,风向,有时为23节阵风

TAF: KNKT 2315/2415 15008KT 9999 BKN070 QNH3026INS BECMG 2319/2321 16010KT 9999 BKN025 BKN070 QNH3009INS FM240200 17012KT 9999 BKN020 OVC060 QNH2980INS TEMPO 2402/2408 18013G23KT T17/2319Z T14/2401Z

超过4000个机场的气象观测和天气预报(METAR&TAF报告)。

可查询的气象台以黄色和红色小点在地图上表示。

将鼠标移到小点上方,可查看气象台名称。

然后点击查看天气观测和预报。

如需切换地图:点击带黑十字的绿色按钮放大地图;点击带横线的绿色按钮缩小地图;或者点击绿色箭头查看邻近地区的地图。


METAR-TAF: